sensor_id;sensor_type;location;lat;lon;timestamp;P1;durP1;ratioP1;P2;durP2;ratioP2
10565;SDS011;5331;48.148;16.326;2023-12-20T00:05:42;31.37;;;24.43;;
10565;SDS011;5331;48.148;16.326;2023-12-20T00:08:08;30.03;;;25.00;;
10565;SDS011;5331;48.148;16.326;2023-12-20T00:10:35;30.13;;;23.60;;
10565;SDS011;5331;48.148;16.326;2023-12-20T00:13:01;30.83;;;24.97;;
10565;SDS011;5331;48.148;16.326;2023-12-20T00:15:27;29.67;;;23.73;;
10565;SDS011;5331;48.148;16.326;2023-12-20T00:17:53;30.03;;;23.63;;
10565;SDS011;5331;48.148;16.326;2023-12-20T00:20:20;31.17;;;24.13;;
10565;SDS011;5331;48.148;16.326;2023-12-20T00:35:59;32.60;;;25.10;;
10565;SDS011;5331;48.148;16.326;2023-12-20T00:38:26;29.37;;;24.23;;
10565;SDS011;5331;48.148;16.326;2023-12-20T00:40:52;31.60;;;22.83;;
10565;SDS011;5331;48.148;16.326;2023-12-20T00:43:18;30.17;;;23.77;;
10565;SDS011;5331;48.148;16.326;2023-12-20T00:45:44;30.03;;;24.20;;
10565;SDS011;5331;48.148;16.326;2023-12-20T00:48:10;33.10;;;24.60;;
10565;SDS011;5331;48.148;16.326;2023-12-20T00:50:37;31.43;;;24.10;;
10565;SDS011;5331;48.148;16.326;2023-12-20T01:07:01;31.77;;;23.43;;
10565;SDS011;5331;48.148;16.326;2023-12-20T01:09:27;29.77;;;23.70;;
10565;SDS011;5331;48.148;16.326;2023-12-20T01:11:53;32.57;;;24.67;;
10565;SDS011;5331;48.148;16.326;2023-12-20T01:14:19;32.27;;;25.40;;
10565;SDS011;5331;48.148;16.326;2023-12-20T01:16:45;33.07;;;24.07;;
10565;SDS011;5331;48.148;16.326;2023-12-20T01:19:12;29.40;;;23.93;;
10565;SDS011;5331;48.148;16.326;2023-12-20T01:21:39;33.23;;;24.93;;
10565;SDS011;5331;48.148;16.326;2023-12-20T01:41:58;32.77;;;23.70;;
10565;SDS011;5331;48.148;16.326;2023-12-20T01:44:24;31.00;;;24.17;;
10565;SDS011;5331;48.148;16.326;2023-12-20T01:46:50;31.70;;;23.50;;
10565;SDS011;5331;48.148;16.326;2023-12-20T01:49:17;30.47;;;22.77;;
10565;SDS011;5331;48.148;16.326;2023-12-20T01:51:43;31.60;;;24.30;;
10565;SDS011;5331;48.148;16.326;2023-12-20T01:54:09;34.93;;;25.23;;
10565;SDS011;5331;48.148;16.326;2023-12-20T01:56:36;34.30;;;25.30;;
10565;SDS011;5331;48.148;16.326;2023-12-20T01:59:03;29.97;;;23.47;;
10565;SDS011;5331;48.148;16.326;2023-12-20T02:14:31;31.13;;;23.70;;
10565;SDS011;5331;48.148;16.326;2023-12-20T02:16:57;29.87;;;23.83;;
10565;SDS011;5331;48.148;16.326;2023-12-20T02:19:23;29.77;;;23.63;;
10565;SDS011;5331;48.148;16.326;2023-12-20T02:21:50;32.03;;;23.97;;
10565;SDS011;5331;48.148;16.326;2023-12-20T02:24:29;31.10;;;24.13;;
10565;SDS011;5331;48.148;16.326;2023-12-20T02:26:56;33.60;;;24.90;;
10565;SDS011;5331;48.148;16.326;2023-12-20T02:29:22;30.50;;;22.50;;
10565;SDS011;5331;48.148;16.326;2023-12-20T02:47:17;29.77;;;22.80;;
10565;SDS011;5331;48.148;16.326;2023-12-20T02:49:43;29.20;;;22.90;;
10565;SDS011;5331;48.148;16.326;2023-12-20T02:52:09;30.40;;;24.20;;
10565;SDS011;5331;48.148;16.326;2023-12-20T02:54:35;29.90;;;23.33;;
10565;SDS011;5331;48.148;16.326;2023-12-20T02:57:02;46.20;;;26.47;;
10565;SDS011;5331;48.148;16.326;2023-12-20T02:59:28;35.03;;;25.50;;
10565;SDS011;5331;48.148;16.326;2023-12-20T03:01:54;35.20;;;25.07;;
10565;SDS011;5331;48.148;16.326;2023-12-20T03:22:14;41.30;;;24.37;;
10565;SDS011;5331;48.148;16.326;2023-12-20T03:24:40;37.10;;;23.90;;
10565;SDS011;5331;48.148;16.326;2023-12-20T03:27:06;37.87;;;26.00;;
10565;SDS011;5331;48.148;16.326;2023-12-20T03:29:33;35.87;;;29.97;;
10565;SDS011;5331;48.148;16.326;2023-12-20T03:31:59;34.77;;;28.93;;
10565;SDS011;5331;48.148;16.326;2023-12-20T03:34:26;38.53;;;30.13;;
10565;SDS011;5331;48.148;16.326;2023-12-20T03:36:52;36.33;;;30.53;;
10565;SDS011;5331;48.148;16.326;2023-12-20T03:39:19;39.90;;;31.87;;
10565;SDS011;5331;48.148;16.326;2023-12-20T03:59:36;31.97;;;24.70;;
10565;SDS011;5331;48.148;16.326;2023-12-20T04:02:03;29.90;;;23.43;;
10565;SDS011;5331;48.148;16.326;2023-12-20T04:04:29;34.50;;;25.57;;
10565;SDS011;5331;48.148;16.326;2023-12-20T04:06:55;34.47;;;26.73;;
10565;SDS011;5331;48.148;16.326;2023-12-20T04:09:22;33.57;;;25.53;;
10565;SDS011;5331;48.148;16.326;2023-12-20T04:11:48;34.23;;;26.30;;
10565;SDS011;5331;48.148;16.326;2023-12-20T04:14:14;34.17;;;26.30;;
10565;SDS011;5331;48.148;16.326;2023-12-20T04:34:31;36.60;;;26.03;;
10565;SDS011;5331;48.148;16.326;2023-12-20T04:36:58;31.97;;;24.50;;
10565;SDS011;5331;48.148;16.326;2023-12-20T04:39:24;32.13;;;24.03;;
10565;SDS011;5331;48.148;16.326;2023-12-20T04:41:50;33.73;;;24.90;;
10565;SDS011;5331;48.148;16.326;2023-12-20T04:44:16;32.73;;;23.60;;
10565;SDS011;5331;48.148;16.326;2023-12-20T04:46:42;35.13;;;25.27;;
10565;SDS011;5331;48.148;16.326;2023-12-20T04:49:08;32.80;;;24.67;;
10565;SDS011;5331;48.148;16.326;2023-12-20T05:09:29;32.20;;;23.70;;
10565;SDS011;5331;48.148;16.326;2023-12-20T05:11:55;32.30;;;24.20;;
10565;SDS011;5331;48.148;16.326;2023-12-20T05:14:21;34.33;;;24.37;;
10565;SDS011;5331;48.148;16.326;2023-12-20T05:16:47;32.67;;;23.40;;
10565;SDS011;5331;48.148;16.326;2023-12-20T05:19:14;34.37;;;24.07;;
10565;SDS011;5331;48.148;16.326;2023-12-20T05:21:40;35.13;;;25.80;;
10565;SDS011;5331;48.148;16.326;2023-12-20T05:24:07;34.17;;;24.40;;
10565;SDS011;5331;48.148;16.326;2023-12-20T05:44:22;37.20;;;26.57;;
10565;SDS011;5331;48.148;16.326;2023-12-20T05:46:48;36.00;;;28.07;;
10565;SDS011;5331;48.148;16.326;2023-12-20T05:49:14;34.40;;;25.73;;
10565;SDS011;5331;48.148;16.326;2023-12-20T05:51:40;31.13;;;23.73;;
10565;SDS011;5331;48.148;16.326;2023-12-20T05:54:07;32.83;;;23.27;;
10565;SDS011;5331;48.148;16.326;2023-12-20T05:56:34;30.37;;;22.23;;
10565;SDS011;5331;48.148;16.326;2023-12-20T05:59:00;33.03;;;25.93;;
10565;SDS011;5331;48.148;16.326;2023-12-20T06:01:27;33.93;;;25.87;;
10565;SDS011;5331;48.148;16.326;2023-12-20T06:03:53;40.07;;;26.27;;
10565;SDS011;5331;48.148;16.326;2023-12-20T06:21:48;30.60;;;22.40;;
10565;SDS011;5331;48.148;16.326;2023-12-20T06:24:14;27.73;;;22.20;;
10565;SDS011;5331;48.148;16.326;2023-12-20T06:26:40;28.53;;;21.33;;
10565;SDS011;5331;48.148;16.326;2023-12-20T06:29:06;26.80;;;22.03;;
10565;SDS011;5331;48.148;16.326;2023-12-20T06:31:32;27.63;;;20.90;;
10565;SDS011;5331;48.148;16.326;2023-12-20T06:33:59;29.33;;;22.50;;
10565;SDS011;5331;48.148;16.326;2023-12-20T06:36:25;30.97;;;22.90;;
10565;SDS011;5331;48.148;16.326;2023-12-20T06:56:40;7.37;;;6.00;;
10565;SDS011;5331;48.148;16.326;2023-12-20T06:59:07;6.73;;;5.53;;
10565;SDS011;5331;48.148;16.326;2023-12-20T07:01:33;5.70;;;5.10;;
10565;SDS011;5331;48.148;16.326;2023-12-20T07:03:59;5.17;;;4.67;;
10565;SDS011;5331;48.148;16.326;2023-12-20T07:06:25;4.73;;;4.00;;
10565;SDS011;5331;48.148;16.326;2023-12-20T07:08:51;4.30;;;3.67;;
10565;SDS011;5331;48.148;16.326;2023-12-20T07:11:18;4.63;;;3.53;;
10565;SDS011;5331;48.148;16.326;2023-12-20T07:31:31;3.20;;;2.97;;
10565;SDS011;5331;48.148;16.326;2023-12-20T07:33:57;5.00;;;3.20;;
10565;SDS011;5331;48.148;16.326;2023-12-20T07:36:23;4.47;;;3.00;;
10565;SDS011;5331;48.148;16.326;2023-12-20T07:38:50;4.00;;;3.00;;
10565;SDS011;5331;48.148;16.326;2023-12-20T07:41:16;4.77;;;3.07;;
10565;SDS011;5331;48.148;16.326;2023-12-20T07:43:42;4.80;;;3.13;;
10565;SDS011;5331;48.148;16.326;2023-12-20T07:46:09;3.40;;;3.10;;
10565;SDS011;5331;48.148;16.326;2023-12-20T08:06:28;4.22;;;3.30;;
10565;SDS011;5331;48.148;16.326;2023-12-20T08:08:54;6.33;;;3.50;;
10565;SDS011;5331;48.148;16.326;2023-12-20T08:11:21;3.30;;;3.00;;
10565;SDS011;5331;48.148;16.326;2023-12-20T08:13:47;3.63;;;3.10;;
10565;SDS011;5331;48.148;16.326;2023-12-20T08:16:13;3.37;;;3.07;;
10565;SDS011;5331;48.148;16.326;2023-12-20T08:18:40;4.60;;;3.37;;
10565;SDS011;5331;48.148;16.326;2023-12-20T08:21:07;3.83;;;3.20;;
10565;SDS011;5331;48.148;16.326;2023-12-20T08:41:28;6.40;;;3.10;;
10565;SDS011;5331;48.148;16.326;2023-12-20T08:43:55;4.30;;;3.27;;
10565;SDS011;5331;48.148;16.326;2023-12-20T08:46:21;3.77;;;3.27;;
10565;SDS011;5331;48.148;16.326;2023-12-20T08:48:48;4.27;;;3.10;;
10565;SDS011;5331;48.148;16.326;2023-12-20T08:51:14;4.13;;;3.23;;
10565;SDS011;5331;48.148;16.326;2023-12-20T08:53:40;4.27;;;3.00;;
10565;SDS011;5331;48.148;16.326;2023-12-20T08:56:10;4.47;;;2.93;;
10565;SDS011;5331;48.148;16.326;2023-12-20T09:12:05;4.35;;;2.83;;
10565;SDS011;5331;48.148;16.326;2023-12-20T09:14:31;3.10;;;2.80;;
10565;SDS011;5331;48.148;16.326;2023-12-20T09:16:58;2.40;;;2.20;;
10565;SDS011;5331;48.148;16.326;2023-12-20T09:19:26;4.03;;;2.50;;
10565;SDS011;5331;48.148;16.326;2023-12-20T09:21:52;2.13;;;2.03;;
10565;SDS011;5331;48.148;16.326;2023-12-20T09:24:19;2.27;;;2.07;;
10565;SDS011;5331;48.148;16.326;2023-12-20T09:26:45;17.27;;;3.10;;
10565;SDS011;5331;48.148;16.326;2023-12-20T09:44:39;4.40;;;2.10;;
10565;SDS011;5331;48.148;16.326;2023-12-20T09:47:07;7.43;;;2.63;;
10565;SDS011;5331;48.148;16.326;2023-12-20T09:49:34;2.17;;;2.03;;
10565;SDS011;5331;48.148;16.326;2023-12-20T09:52:00;100.10;;;10.27;;
10565;SDS011;5331;48.148;16.326;2023-12-20T09:54:27;149.80;;;11.83;;
10565;SDS011;5331;48.148;16.326;2023-12-20T09:56:55;6.87;;;2.67;;
10565;SDS011;5331;48.148;16.326;2023-12-20T09:59:21;31.03;;;4.40;;
10565;SDS011;5331;48.148;16.326;2023-12-20T10:14:50;2.63;;;1.97;;
10565;SDS011;5331;48.148;16.326;2023-12-20T10:17:18;2.63;;;2.20;;
10565;SDS011;5331;48.148;16.326;2023-12-20T10:19:47;2.10;;;2.00;;
10565;SDS011;5331;48.148;16.326;2023-12-20T10:22:13;2.77;;;2.13;;
10565;SDS011;5331;48.148;16.326;2023-12-20T10:24:41;2.40;;;2.20;;
10565;SDS011;5331;48.148;16.326;2023-12-20T10:27:07;2.47;;;2.27;;
10565;SDS011;5331;48.148;16.326;2023-12-20T10:29:34;2.93;;;2.10;;
10565;SDS011;5331;48.148;16.326;2023-12-20T10:32:08;3.20;;;2.07;;
10565;SDS011;5331;48.148;16.326;2023-12-20T10:50:18;2.50;;;1.60;;
10565;SDS011;5331;48.148;16.326;2023-12-20T10:52:45;1.83;;;1.73;;
10565;SDS011;5331;48.148;16.326;2023-12-20T10:55:12;3.40;;;2.73;;
10565;SDS011;5331;48.148;16.326;2023-12-20T10:57:39;2.17;;;1.70;;
10565;SDS011;5331;48.148;16.326;2023-12-20T11:00:06;4.43;;;1.80;;
10565;SDS011;5331;48.148;16.326;2023-12-20T11:02:38;2.20;;;1.60;;
10565;SDS011;5331;48.148;16.326;2023-12-20T11:05:06;3.20;;;1.80;;
10565;SDS011;5331;48.148;16.326;2023-12-20T11:25:35;3.07;;;1.80;;
10565;SDS011;5331;48.148;16.326;2023-12-20T11:28:13;3.83;;;2.00;;
10565;SDS011;5331;48.148;16.326;2023-12-20T11:30:42;9.23;;;3.13;;
10565;SDS011;5331;48.148;16.326;2023-12-20T11:33:12;2.47;;;1.70;;
10565;SDS011;5331;48.148;16.326;2023-12-20T11:35:39;1.77;;;1.50;;
10565;SDS011;5331;48.148;16.326;2023-12-20T11:38:07;2.70;;;1.47;;
10565;SDS011;5331;48.148;16.326;2023-12-20T11:40:34;1.90;;;1.50;;
10565;SDS011;5331;48.148;16.326;2023-12-20T11:58:26;2.00;;;1.77;;
10565;SDS011;5331;48.148;16.326;2023-12-20T12:00:53;1.75;;;1.65;;
10565;SDS011;5331;48.148;16.326;2023-12-20T12:03:20;1.70;;;1.60;;
10565;SDS011;5331;48.148;16.326;2023-12-20T12:05:47;1.53;;;1.43;;
10565;SDS011;5331;48.148;16.326;2023-12-20T12:08:13;2.20;;;2.00;;
10565;SDS011;5331;48.148;16.326;2023-12-20T12:10:39;1.40;;;1.30;;
10565;SDS011;5331;48.148;16.326;2023-12-20T12:13:05;1.50;;;1.40;;
10565;SDS011;5331;48.148;16.326;2023-12-20T12:31:00;2.92;;;2.72;;
10565;SDS011;5331;48.148;16.326;2023-12-20T12:33:26;1.90;;;1.80;;
10565;SDS011;5331;48.148;16.326;2023-12-20T12:35:53;2.10;;;2.00;;
10565;SDS011;5331;48.148;16.326;2023-12-20T12:38:21;1.40;;;1.30;;
10565;SDS011;5331;48.148;16.326;2023-12-20T12:40:47;4.78;;;3.92;;
10565;SDS011;5331;48.148;16.326;2023-12-20T12:43:15;1.70;;;1.60;;
10565;SDS011;5331;48.148;16.326;2023-12-20T12:45:42;1.20;;;1.20;;
10565;SDS011;5331;48.148;16.326;2023-12-20T13:03:10;1.70;;;1.60;;
10565;SDS011;5331;48.148;16.326;2023-12-20T13:05:36;1.30;;;1.23;;
10565;SDS011;5331;48.148;16.326;2023-12-20T13:08:03;1.33;;;1.30;;
10565;SDS011;5331;48.148;16.326;2023-12-20T13:10:30;1.50;;;1.50;;
10565;SDS011;5331;48.148;16.326;2023-12-20T13:12:56;1.65;;;1.58;;
10565;SDS011;5331;48.148;16.326;2023-12-20T13:15:23;2.37;;;1.50;;
10565;SDS011;5331;48.148;16.326;2023-12-20T13:17:49;2.77;;;1.60;;
10565;SDS011;5331;48.148;16.326;2023-12-20T13:35:40;1.40;;;1.40;;
10565;SDS011;5331;48.148;16.326;2023-12-20T13:38:06;1.70;;;1.60;;
10565;SDS011;5331;48.148;16.326;2023-12-20T13:40:33;1.50;;;1.40;;
10565;SDS011;5331;48.148;16.326;2023-12-20T13:42:59;1.97;;;1.53;;
10565;SDS011;5331;48.148;16.326;2023-12-20T13:45:28;1.50;;;1.40;;
10565;SDS011;5331;48.148;16.326;2023-12-20T13:47:54;1.60;;;1.50;;
10565;SDS011;5331;48.148;16.326;2023-12-20T13:50:21;1.53;;;1.43;;
10565;SDS011;5331;48.148;16.326;2023-12-20T14:07:46;1.60;;;1.50;;
10565;SDS011;5331;48.148;16.326;2023-12-20T14:10:12;1.33;;;1.30;;
10565;SDS011;5331;48.148;16.326;2023-12-20T14:12:38;1.33;;;1.33;;
10565;SDS011;5331;48.148;16.326;2023-12-20T14:15:05;1.38;;;1.38;;
10565;SDS011;5331;48.148;16.326;2023-12-20T14:17:35;3.63;;;3.03;;
10565;SDS011;5331;48.148;16.326;2023-12-20T14:20:02;1.40;;;1.30;;
10565;SDS011;5331;48.148;16.326;2023-12-20T14:22:30;1.60;;;1.50;;
10565;SDS011;5331;48.148;16.326;2023-12-20T14:24:57;1.57;;;1.50;;
10565;SDS011;5331;48.148;16.326;2023-12-20T14:42:47;1.33;;;1.33;;
10565;SDS011;5331;48.148;16.326;2023-12-20T14:45:14;1.63;;;1.60;;
10565;SDS011;5331;48.148;16.326;2023-12-20T14:47:41;1.77;;;1.67;;
10565;SDS011;5331;48.148;16.326;2023-12-20T14:50:07;1.60;;;1.50;;
10565;SDS011;5331;48.148;16.326;2023-12-20T14:52:34;1.60;;;1.60;;
10565;SDS011;5331;48.148;16.326;2023-12-20T14:55:00;1.60;;;1.50;;
10565;SDS011;5331;48.148;16.326;2023-12-20T14:57:28;1.67;;;1.40;;
10565;SDS011;5331;48.148;16.326;2023-12-20T14:59:55;1.80;;;1.70;;
10565;SDS011;5331;48.148;16.326;2023-12-20T15:27:12;1.80;;;1.70;;
10565;SDS011;5331;48.148;16.326;2023-12-20T15:34:11;2.23;;;2.10;;
10565;SDS011;5331;48.148;16.326;2023-12-20T15:39:34;2.00;;;1.90;;
10565;SDS011;5331;48.148;16.326;2023-12-20T15:42:05;2.20;;;2.10;;
10565;SDS011;5331;48.148;16.326;2023-12-20T15:44:32;4.00;;;3.60;;
10565;SDS011;5331;48.148;16.326;2023-12-20T15:46:58;2.47;;;2.37;;
10565;SDS011;5331;48.148;16.326;2023-12-20T16:02:28;1.97;;;1.87;;
10565;SDS011;5331;48.148;16.326;2023-12-20T16:04:54;2.10;;;2.00;;
10565;SDS011;5331;48.148;16.326;2023-12-20T16:07:20;1.93;;;1.83;;
10565;SDS011;5331;48.148;16.326;2023-12-20T16:09:46;2.10;;;2.00;;
10565;SDS011;5331;48.148;16.326;2023-12-20T16:12:12;2.03;;;1.93;;
10565;SDS011;5331;48.148;16.326;2023-12-20T16:14:39;1.80;;;1.73;;
10565;SDS011;5331;48.148;16.326;2023-12-20T16:17:05;1.80;;;1.70;;
10565;SDS011;5331;48.148;16.326;2023-12-20T16:32:35;1.50;;;1.50;;
10565;SDS011;5331;48.148;16.326;2023-12-20T16:35:01;1.90;;;1.80;;
10565;SDS011;5331;48.148;16.326;2023-12-20T16:37:28;1.90;;;1.80;;
10565;SDS011;5331;48.148;16.326;2023-12-20T16:39:54;2.00;;;1.90;;
10565;SDS011;5331;48.148;16.326;2023-12-20T16:42:20;1.93;;;1.70;;
10565;SDS011;5331;48.148;16.326;2023-12-20T16:44:47;1.90;;;1.80;;
10565;SDS011;5331;48.148;16.326;2023-12-20T16:47:13;2.03;;;1.90;;
10565;SDS011;5331;48.148;16.326;2023-12-20T17:05:10;1.45;;;1.45;;
10565;SDS011;5331;48.148;16.326;2023-12-20T17:07:36;1.30;;;1.30;;
10565;SDS011;5331;48.148;16.326;2023-12-20T17:10:03;1.60;;;1.50;;
10565;SDS011;5331;48.148;16.326;2023-12-20T17:12:30;1.70;;;1.60;;
10565;SDS011;5331;48.148;16.326;2023-12-20T17:14:56;1.67;;;1.57;;
10565;SDS011;5331;48.148;16.326;2023-12-20T17:17:22;1.60;;;1.50;;
10565;SDS011;5331;48.148;16.326;2023-12-20T17:19:48;1.70;;;1.60;;
10565;SDS011;5331;48.148;16.326;2023-12-20T17:35:15;1.70;;;1.60;;
10565;SDS011;5331;48.148;16.326;2023-12-20T17:37:43;1.90;;;1.80;;
10565;SDS011;5331;48.148;16.326;2023-12-20T17:40:09;1.70;;;1.60;;
10565;SDS011;5331;48.148;16.326;2023-12-20T17:42:36;2.47;;;1.60;;
10565;SDS011;5331;48.148;16.326;2023-12-20T17:45:02;1.93;;;1.70;;
10565;SDS011;5331;48.148;16.326;2023-12-20T17:47:29;1.83;;;1.73;;
10565;SDS011;5331;48.148;16.326;2023-12-20T17:49:55;2.00;;;1.90;;
10565;SDS011;5331;48.148;16.326;2023-12-20T17:52:22;2.17;;;2.00;;
10565;SDS011;5331;48.148;16.326;2023-12-20T18:10:15;1.80;;;1.70;;
10565;SDS011;5331;48.148;16.326;2023-12-20T18:12:43;2.57;;;2.37;;
10565;SDS011;5331;48.148;16.326;2023-12-20T18:15:10;2.07;;;1.70;;
10565;SDS011;5331;48.148;16.326;2023-12-20T18:17:39;3.37;;;1.80;;
10565;SDS011;5331;48.148;16.326;2023-12-20T18:20:06;2.03;;;1.73;;
10565;SDS011;5331;48.148;16.326;2023-12-20T18:22:34;1.83;;;1.70;;
10565;SDS011;5331;48.148;16.326;2023-12-20T18:25:04;2.37;;;1.70;;
10565;SDS011;5331;48.148;16.326;2023-12-20T18:43:02;2.33;;;1.50;;
10565;SDS011;5331;48.148;16.326;2023-12-20T18:45:30;4.07;;;1.43;;
10565;SDS011;5331;48.148;16.326;2023-12-20T18:47:58;3.77;;;1.70;;
10565;SDS011;5331;48.148;16.326;2023-12-20T18:50:26;6.93;;;1.80;;
10565;SDS011;5331;48.148;16.326;2023-12-20T18:52:53;3.23;;;1.53;;
10565;SDS011;5331;48.148;16.326;2023-12-20T18:55:21;1.40;;;1.40;;
10565;SDS011;5331;48.148;16.326;2023-12-20T18:57:49;3.07;;;1.53;;
10565;SDS011;5331;48.148;16.326;2023-12-20T19:15:44;4.33;;;1.83;;
10565;SDS011;5331;48.148;16.326;2023-12-20T19:18:12;4.37;;;2.60;;
10565;SDS011;5331;48.148;16.326;2023-12-20T19:20:42;6.90;;;3.87;;
10565;SDS011;5331;48.148;16.326;2023-12-20T19:23:10;6.57;;;3.43;;
10565;SDS011;5331;48.148;16.326;2023-12-20T19:25:38;9.03;;;2.37;;
10565;SDS011;5331;48.148;16.326;2023-12-20T19:28:06;3.93;;;2.40;;
10565;SDS011;5331;48.148;16.326;2023-12-20T19:30:35;3.93;;;2.20;;
10565;SDS011;5331;48.148;16.326;2023-12-20T19:47:24;2.87;;;2.10;;
10565;SDS011;5331;48.148;16.326;2023-12-20T19:49:53;2.40;;;2.17;;
10565;SDS011;5331;48.148;16.326;2023-12-20T19:52:22;4.57;;;2.70;;
10565;SDS011;5331;48.148;16.326;2023-12-20T19:54:50;5.37;;;2.40;;
10565;SDS011;5331;48.148;16.326;2023-12-20T19:57:20;2.67;;;2.47;;
10565;SDS011;5331;48.148;16.326;2023-12-20T19:59:49;4.73;;;2.67;;
10565;SDS011;5331;48.148;16.326;2023-12-20T20:02:17;2.93;;;2.60;;
10565;SDS011;5331;48.148;16.326;2023-12-20T20:18:02;2.77;;;2.57;;
10565;SDS011;5331;48.148;16.326;2023-12-20T20:20:35;4.27;;;2.17;;
10565;SDS011;5331;48.148;16.326;2023-12-20T20:23:04;2.40;;;2.20;;
10565;SDS011;5331;48.148;16.326;2023-12-20T20:25:32;3.87;;;2.50;;
10565;SDS011;5331;48.148;16.326;2023-12-20T20:28:00;2.50;;;2.30;;
10565;SDS011;5331;48.148;16.326;2023-12-20T20:30:29;2.50;;;2.27;;
10565;SDS011;5331;48.148;16.326;2023-12-20T20:32:57;3.53;;;2.20;;
10565;SDS011;5331;48.148;16.326;2023-12-20T20:50:53;2.27;;;2.00;;
10565;SDS011;5331;48.148;16.326;2023-12-20T20:53:24;2.97;;;1.90;;
10565;SDS011;5331;48.148;16.326;2023-12-20T20:55:52;2.30;;;2.00;;
10565;SDS011;5331;48.148;16.326;2023-12-20T20:58:21;2.97;;;1.83;;
10565;SDS011;5331;48.148;16.326;2023-12-20T21:00:48;3.10;;;2.00;;
10565;SDS011;5331;48.148;16.326;2023-12-20T21:03:15;2.90;;;2.10;;
10565;SDS011;5331;48.148;16.326;2023-12-20T21:19:03;3.97;;;2.30;;
10565;SDS011;5331;48.148;16.326;2023-12-20T21:21:29;2.77;;;1.73;;
10565;SDS011;5331;48.148;16.326;2023-12-20T21:23:57;1.90;;;1.80;;
10565;SDS011;5331;48.148;16.326;2023-12-20T21:26:23;3.40;;;1.90;;
10565;SDS011;5331;48.148;16.326;2023-12-20T21:28:50;3.60;;;2.30;;
10565;SDS011;5331;48.148;16.326;2023-12-20T21:31:16;2.20;;;2.00;;
10565;SDS011;5331;48.148;16.326;2023-12-20T21:46:56;5.23;;;1.87;;
10565;SDS011;5331;48.148;16.326;2023-12-20T21:49:23;2.20;;;1.90;;
10565;SDS011;5331;48.148;16.326;2023-12-20T21:51:49;4.77;;;2.10;;
10565;SDS011;5331;48.148;16.326;2023-12-20T21:54:16;1.90;;;1.80;;
10565;SDS011;5331;48.148;16.326;2023-12-20T21:56:42;2.67;;;1.73;;
10565;SDS011;5331;48.148;16.326;2023-12-20T21:59:08;2.10;;;1.50;;
10565;SDS011;5331;48.148;16.326;2023-12-20T22:01:35;2.40;;;1.40;;
10565;SDS011;5331;48.148;16.326;2023-12-20T22:19:34;2.17;;;1.77;;
10565;SDS011;5331;48.148;16.326;2023-12-20T22:22:03;2.50;;;1.50;;
10565;SDS011;5331;48.148;16.326;2023-12-20T22:24:43;2.70;;;1.80;;
10565;SDS011;5331;48.148;16.326;2023-12-20T22:27:25;1.60;;;1.43;;
10565;SDS011;5331;48.148;16.326;2023-12-20T22:29:51;1.83;;;1.53;;
10565;SDS011;5331;48.148;16.326;2023-12-20T22:32:18;1.60;;;1.50;;
10565;SDS011;5331;48.148;16.326;2023-12-20T22:34:46;2.00;;;1.60;;
10565;SDS011;5331;48.148;16.326;2023-12-20T22:50:15;2.87;;;1.60;;
10565;SDS011;5331;48.148;16.326;2023-12-20T22:52:41;3.37;;;1.80;;
10565;SDS011;5331;48.148;16.326;2023-12-20T22:55:08;2.03;;;1.60;;
10565;SDS011;5331;48.148;16.326;2023-12-20T22:57:34;2.10;;;1.50;;
10565;SDS011;5331;48.148;16.326;2023-12-20T23:00:00;1.77;;;1.60;;
10565;SDS011;5331;48.148;16.326;2023-12-20T23:02:27;4.07;;;1.93;;
10565;SDS011;5331;48.148;16.326;2023-12-20T23:04:53;2.20;;;1.70;;
10565;SDS011;5331;48.148;16.326;2023-12-20T23:25:01;1.50;;;1.40;;
10565;SDS011;5331;48.148;16.326;2023-12-20T23:27:32;1.60;;;1.40;;
10565;SDS011;5331;48.148;16.326;2023-12-20T23:29:59;2.67;;;1.60;;
10565;SDS011;5331;48.148;16.326;2023-12-20T23:32:25;2.00;;;1.30;;
10565;SDS011;5331;48.148;16.326;2023-12-20T23:34:51;2.57;;;1.70;;
10565;SDS011;5331;48.148;16.326;2023-12-20T23:37:17;1.60;;;1.50;;
10565;SDS011;5331;48.148;16.326;2023-12-20T23:39:43;3.70;;;1.83;;
10565;SDS011;5331;48.148;16.326;2023-12-20T23:42:12;3.03;;;1.53;;
